Terminal Aerodrome Forecast
Issued by NWS

Home | Current Version | Previous Version | Graphics & Text | Print | Product List | Glossary On
Versions: 1 2 3 4 5 6 7 8 9 10 11 12 13 14 15 16 17 18 19 20 21 22 23
000
FTUS43 KGRB 250700 AAA
TAFAUW
TAF AMD
KAUW 250717Z 2507/2606 30010KT 3SM -SN SCT015 OVC029
      TEMPO 2507/2510 2SM -SN BKN015
     FM251000 30007KT 6SM -SHSN OVC022
     FM251500 28007KT P6SM BKN025 BKN100
     FM251900 27007KT P6SM FEW030 SCT100
     FM252300 23003KT P6SM FEW100=

USA.gov is the U.S. government's official web portal to all federal, state and local government web resources and services.